Time;durP1;ratioP1;P1;durP2;ratioP2;P2;SDS_P1;SDS_P2;PMS_P1;PMS_P2;Temp;Humidity;BMP_temperature;BMP_pressure;BME280_temperature;BME280_humidity;BME280_pressure;Samples;Min_cycle;Max_cycle;Signal;HPM_P1;HPM_P2
2022/03/27 00:00:34;;;;;;;2.17;2.03;;;7.40;99.90;;;;;;5081432;28;20040;-83
2022/03/27 00:03:00;;;;;;;1.50;1.42;;;7.50;99.90;;;;;;5081797;28;20044;-84
2022/03/27 00:05:25;;;;;;;5.90;2.50;;;7.40;99.90;;;;;;5080718;28;20048;-83
2022/03/27 00:07:51;;;;;;;2.35;2.25;;;7.40;99.90;;;;;;5063872;28;20504;-83
2022/03/27 00:10:17;;;;;;;3.72;2.63;;;7.40;99.90;;;;;;5079875;28;20446;-83
2022/03/27 00:12:43;;;;;;;2.67;2.47;;;7.40;99.90;;;;;;5081507;28;20036;-83
2022/03/27 00:15:09;;;;;;;4.75;2.95;;;7.40;99.90;;;;;;5081365;28;20105;-83
2022/03/27 00:17:35;;;;;;;2.53;2.13;;;7.40;99.90;;;;;;5063691;28;20097;-83
2022/03/27 00:20:03;;;;;;;3.80;2.92;;;7.40;99.90;;;;;;5081243;28;20039;-83
2022/03/27 00:22:28;;;;;;;11.88;3.78;;;7.40;99.90;;;;;;5079830;28;20731;-83
2022/03/27 00:24:55;;;;;;;4.20;3.50;;;7.50;99.90;;;;;;5080757;28;20060;-82
2022/03/27 00:27:20;;;;;;;4.78;3.50;;;7.40;99.90;;;;;;5079891;28;20052;-83
2022/03/27 00:29:46;;;;;;;2.55;2.35;;;7.40;99.90;;;;;;5081646;28;20149;-82
2022/03/27 00:32:11;;;;;;;4.40;2.72;;;7.40;99.90;;;;;;5079671;28;20040;-84
2022/03/27 00:34:38;;;;;;;3.25;2.83;;;7.40;99.90;;;;;;5084214;28;20052;-83
2022/03/27 00:37:03;;;;;;;2.20;2.10;;;7.40;99.90;;;;;;5085619;28;20038;-83
2022/03/27 00:39:29;;;;;;;9.20;3.58;;;7.40;99.90;;;;;;5083941;28;20581;-83
2022/03/27 00:41:55;;;;;;;2.78;2.58;;;7.40;99.90;;;;;;5083479;28;20043;-83
2022/03/27 00:44:21;;;;;;;3.47;3.13;;;7.40;99.90;;;;;;5084070;28;20052;-83
2022/03/27 00:46:46;;;;;;;3.15;2.95;;;7.40;99.90;;;;;;5084978;28;20540;-83
2022/03/27 00:49:12;;;;;;;3.83;3.00;;;7.40;99.90;;;;;;5084465;28;20547;-83
2022/03/27 00:51:37;;;;;;;2.75;2.55;;;7.40;99.90;;;;;;5085630;28;20534;-83
2022/03/27 00:54:04;;;;;;;3.67;3.30;;;7.40;99.90;;;;;;5084191;28;20038;-84
2022/03/27 00:56:30;;;;;;;3.58;3.30;;;7.40;99.90;;;;;;5083615;28;20040;-83
2022/03/27 00:58:56;;;;;;;2.30;2.20;;;7.40;99.90;;;;;;5084270;28;20556;-83
2022/03/27 01:03:58;;;;;;;2.70;1.48;;;7.30;99.90;;;;;;5028768;22;20581;-84
2022/03/27 01:06:41;;;;;;;7.93;3.78;;;7.30;99.90;;;;;;5022898;28;20049;-84
2022/03/27 01:11:54;;;;;;;4.97;3.00;;;7.20;99.90;;;;;;5021815;28;20119;-84
2022/03/27 01:14:47;;;;;;;5.18;2.85;;;7.20;99.90;;;;;;5023316;28;20053;-83
2022/03/27 01:17:23;;;;;;;2.55;2.40;;;7.20;99.90;;;;;;5020423;28;20126;-84
2022/03/27 01:19:51;;;;;;;3.97;3.58;;;7.20;99.90;;;;;;5024011;28;20112;-83
2022/03/27 01:22:18;;;;;;;13.48;2.67;;;7.20;99.90;;;;;;5004650;28;20459;-83
2022/03/27 01:24:45;;;;;;;2.95;2.50;;;7.20;99.90;;;;;;5002597;28;20144;-82
2022/03/27 01:27:11;;;;;;;2.40;2.20;;;7.30;99.90;;;;;;5004022;28;20046;-84
2022/03/27 01:29:36;;;;;;;6.97;3.30;;;7.20;99.90;;;;;;5006978;28;20708;-84
2022/03/27 01:32:04;;;;;;;2.15;1.98;;;7.30;99.90;;;;;;5023979;28;20033;-83
2022/03/27 01:34:31;;;;;;;3.28;2.97;;;7.30;99.90;;;;;;5023909;28;20112;-83
2022/03/27 01:37:01;;;;;;;6.00;2.70;;;7.30;99.90;;;;;;5023570;28;20045;-84
2022/03/27 01:39:27;;;;;;;6.15;2.80;;;7.30;99.90;;;;;;5023426;28;20081;-83
2022/03/27 01:41:52;;;;;;;3.47;2.33;;;7.30;99.90;;;;;;5022840;28;20077;-84
2022/03/27 01:44:19;;;;;;;4.45;3.22;;;7.30;99.90;;;;;;5022157;28;20049;-84
2022/03/27 01:46:45;;;;;;;7.32;4.35;;;7.40;99.90;;;;;;5043839;28;20056;-84
2022/03/27 01:49:13;;;;;;;12.15;2.38;;;7.40;99.90;;;;;;5043376;28;20592;-83
2022/03/27 01:51:40;;;;;;;3.13;2.80;;;7.40;99.90;;;;;;5043635;28;20070;-84
2022/03/27 01:54:06;;;;;;;2.60;2.15;;;7.40;99.90;;;;;;5044127;28;20091;-84
2022/03/27 01:56:32;;;;;;;3.03;2.63;;;7.40;99.90;;;;;;5041737;28;20056;-84
2022/03/27 01:58:58;;;;;;;8.70;2.53;;;7.40;99.90;;;;;;5043580;28;20037;-83
2022/03/27 02:01:24;;;;;;;3.80;1.73;;;7.40;99.90;;;;;;5042785;28;20494;-84
2022/03/27 02:03:50;;;;;;;3.65;1.65;;;7.40;99.90;;;;;;5025495;28;20555;-84
2022/03/27 02:06:16;;;;;;;2.92;2.67;;;7.50;99.90;;;;;;5023383;28;20443;-84
2022/03/27 02:08:43;;;;;;;3.30;1.40;;;7.50;99.90;;;;;;5023154;28;20042;-84
2022/03/27 02:11:09;;;;;;;4.03;1.95;;;7.50;99.90;;;;;;5020892;28;20569;-83
2022/03/27 02:13:35;;;;;;;2.08;1.80;;;7.50;99.90;;;;;;5023509;28;20041;-84
2022/03/27 02:16:03;;;;;;;3.33;1.80;;;7.50;99.90;;;;;;5021557;28;20076;-84
2022/03/27 02:18:30;;;;;;;4.38;1.60;;;7.50;99.90;;;;;;5023225;28;20044;-84
2022/03/27 02:20:56;;;;;;;4.55;2.45;;;7.50;99.90;;;;;;5022198;28;20053;-84
2022/03/27 02:23:22;;;;;;;4.50;2.53;;;7.50;99.90;;;;;;5023078;28;20050;-84
2022/03/27 02:25:49;;;;;;;2.30;2.10;;;7.40;99.90;;;;;;5021876;28;20045;-84
2022/03/27 02:28:14;;;;;;;4.70;2.42;;;7.40;99.90;;;;;;5022649;28;20049;-83
2022/03/27 02:30:41;;;;;;;2.15;1.90;;;7.40;99.90;;;;;;5021491;28;20061;-83
2022/03/27 02:33:07;;;;;;;4.47;2.97;;;7.40;99.90;;;;;;5023409;28;20072;-84
2022/03/27 02:35:33;;;;;;;11.02;1.90;;;7.40;99.90;;;;;;5022646;28;20045;-84
2022/03/27 02:37:59;;;;;;;2.00;1.80;;;7.40;99.90;;;;;;5022432;28;20033;-84
2022/03/27 02:40:26;;;;;;;1.13;1.13;;;7.40;99.90;;;;;;5020766;28;20470;-84
2022/03/27 02:42:52;;;;;;;1.95;1.85;;;7.40;99.90;;;;;;5021210;28;20087;-84
2022/03/27 02:45:17;;;;;;;2.80;1.52;;;7.40;99.90;;;;;;5022537;28;20128;-84
2022/03/27 02:47:43;;;;;;;3.20;2.42;;;7.40;99.90;;;;;;5022552;28;20120;-85
2022/03/27 02:50:10;;;;;;;2.47;2.25;;;7.40;99.90;;;;;;5022495;28;20045;-84
2022/03/27 02:52:36;;;;;;;5.72;1.95;;;7.40;99.90;;;;;;5005748;28;20443;-83
2022/03/27 02:55:02;;;;;;;2.50;2.28;;;7.40;99.90;;;;;;5020930;28;20075;-84
2022/03/27 02:57:28;;;;;;;3.38;2.35;;;7.40;99.90;;;;;;5021335;28;20042;-84
2022/03/27 02:59:54;;;;;;;2.05;1.95;;;7.50;99.90;;;;;;5022283;28;20064;-83
2022/03/27 03:02:20;;;;;;;2.25;2.08;;;7.40;99.90;;;;;;5022201;28;20140;-83
2022/03/27 03:04:46;;;;;;;3.67;2.33;;;7.50;99.90;;;;;;5022523;28;20293;-84
2022/03/27 03:07:11;;;;;;;11.70;4.70;;;7.40;99.90;;;;;;5021991;28;20125;-84
2022/03/27 03:09:37;;;;;;;4.57;2.28;;;7.40;99.90;;;;;;5021855;28;20046;-84
2022/03/27 03:12:03;;;;;;;1.65;1.55;;;7.40;99.90;;;;;;5022008;28;20048;-84
2022/03/27 03:14:29;;;;;;;1.17;1.08;;;7.40;99.90;;;;;;5022081;28;20045;-83
2022/03/27 03:16:55;;;;;;;1.90;1.80;;;7.40;99.90;;;;;;5022010;28;20046;-84
2022/03/27 03:19:21;;;;;;;3.28;2.55;;;7.40;99.90;;;;;;5021894;28;20045;-83
2022/03/27 03:21:47;;;;;;;2.10;1.30;;;7.40;99.90;;;;;;5021525;28;20041;-84
2022/03/27 03:24:12;;;;;;;2.38;2.13;;;7.30;99.90;;;;;;5004979;28;20068;-83
2022/03/27 03:26:38;;;;;;;2.47;2.35;;;7.30;99.90;;;;;;5020391;28;20175;-78
2022/03/27 03:29:04;;;;;;;7.47;2.42;;;7.20;99.90;;;;;;5022158;28;20041;-84
2022/03/27 03:31:29;;;;;;;8.18;2.80;;;7.30;99.90;;;;;;5022097;28;20133;-84
2022/03/27 03:33:55;;;;;;;3.88;1.55;;;7.30;99.90;;;;;;5021822;28;20045;-84
2022/03/27 03:36:21;;;;;;;1.73;1.63;;;7.20;99.90;;;;;;5022066;28;20073;-84
2022/03/27 03:38:46;;;;;;;5.07;1.63;;;7.20;99.90;;;;;;5021841;28;20180;-84
2022/03/27 03:41:12;;;;;;;1.35;1.25;;;7.20;99.90;;;;;;5020702;28;20045;-83
2022/03/27 03:43:38;;;;;;;1.35;1.25;;;7.20;99.90;;;;;;5022135;28;20049;-84
2022/03/27 03:46:04;;;;;;;7.72;2.35;;;7.20;99.90;;;;;;5036552;28;20041;-83
2022/03/27 03:48:30;;;;;;;8.90;0.80;;;7.10;99.90;;;;;;5021713;28;20037;-83
2022/03/27 03:50:56;;;;;;;5.20;2.60;;;7.10;99.90;;;;;;5021441;28;20049;-83
2022/03/27 03:53:22;;;;;;;1.15;1.13;;;7.10;99.90;;;;;;5020293;28;20104;-83
2022/03/27 03:55:48;;;;;;;2.45;1.50;;;7.10;99.90;;;;;;5019996;28;20048;-83
2022/03/27 03:58:13;;;;;;;1.58;1.48;;;7.10;99.90;;;;;;5021595;28;20068;-84
2022/03/27 04:00:39;;;;;;;4.55;1.92;;;7.00;99.90;;;;;;5021012;28;20037;-83
2022/03/27 04:03:05;;;;;;;2.05;1.95;;;7.00;99.90;;;;;;5022145;28;20403;-83
2022/03/27 04:05:31;;;;;;;2.40;1.70;;;7.00;99.90;;;;;;5020975;28;20049;-83
2022/03/27 04:07:57;;;;;;;1.33;1.23;;;7.00;99.90;;;;;;5023212;28;20064;-84
2022/03/27 04:10:22;;;;;;;3.33;1.83;;;6.90;99.90;;;;;;5024486;28;20041;-83
2022/03/27 04:12:48;;;;;;;7.32;1.83;;;7.00;99.90;;;;;;5025146;28;20046;-83
2022/03/27 04:15:13;;;;;;;2.08;1.83;;;6.90;99.90;;;;;;5024252;28;20034;-83
2022/03/27 04:17:43;;;;;;;4.63;1.20;;;6.90;99.90;;;;;;5025287;28;20065;-84
2022/03/27 04:20:10;;;;;;;1.77;1.55;;;6.90;99.90;;;;;;5025323;28;20073;-84
2022/03/27 04:22:35;;;;;;;3.15;1.77;;;6.90;99.90;;;;;;5025784;28;20063;-83
2022/03/27 04:25:01;;;;;;;4.22;2.08;;;6.90;99.90;;;;;;5024306;28;20045;-83
2022/03/27 04:27:26;;;;;;;1.33;1.23;;;6.90;99.90;;;;;;5024872;28;20041;-83
2022/03/27 04:29:52;;;;;;;1.80;1.70;;;6.90;99.90;;;;;;5025102;28;20052;-83
2022/03/27 04:32:17;;;;;;;5.30;2.33;;;6.90;99.90;;;;;;5025063;28;20102;-83
2022/03/27 04:34:43;;;;;;;5.00;1.42;;;6.80;99.90;;;;;;5024173;28;20124;-84
2022/03/27 04:37:08;;;;;;;4.82;1.75;;;6.90;99.90;;;;;;5025134;28;20037;-80
2022/03/27 04:39:34;;;;;;;2.40;2.22;;;6.80;99.90;;;;;;5024366;28;20049;-83
2022/03/27 04:41:59;;;;;;;4.72;1.88;;;6.80;99.90;;;;;;5024672;28;20049;-83
2022/03/27 04:44:25;;;;;;;1.60;1.48;;;6.80;99.90;;;;;;5025888;28;20045;-83
2022/03/27 04:46:51;;;;;;;2.78;2.50;;;6.80;99.90;;;;;;5045170;28;20048;-82
2022/03/27 04:49:17;;;;;;;2.38;2.15;;;6.80;99.90;;;;;;5042939;28;20045;-84
2022/03/27 04:51:42;;;;;;;19.80;2.30;;;6.80;99.90;;;;;;5044928;28;20041;-83
2022/03/27 04:54:08;;;;;;;2.15;1.48;;;6.70;99.90;;;;;;5026741;28;20045;-83
2022/03/27 04:56:35;;;;;;;2.03;1.83;;;6.70;99.90;;;;;;5044453;28;20033;-83
2022/03/27 04:59:00;;;;;;;6.13;1.73;;;6.70;99.90;;;;;;5045099;28;20084;-84
2022/03/27 05:01:26;;;;;;;2.38;1.67;;;6.60;99.90;;;;;;5043832;28;20076;-84
2022/03/27 05:03:52;;;;;;;3.42;2.30;;;6.60;99.90;;;;;;5044719;28;20104;-84
2022/03/27 05:06:18;;;;;;;4.22;1.58;;;6.50;99.90;;;;;;5027689;28;20132;-83
2022/03/27 05:08:44;;;;;;;4.75;2.42;;;6.50;99.90;;;;;;5023855;28;20112;-83
2022/03/27 05:11:10;;;;;;;7.20;2.25;;;6.50;99.90;;;;;;5021979;28;20486;-83
2022/03/27 05:13:35;;;;;;;0.98;0.98;;;6.50;99.90;;;;;;5025268;28;20046;-83
2022/03/27 05:16:01;;;;;;;5.75;2.53;;;6.50;99.90;;;;;;5039397;28;20136;-83
2022/03/27 05:18:27;;;;;;;16.45;2.67;;;6.50;99.90;;;;;;5024023;28;20041;-83
2022/03/27 05:20:52;;;;;;;1.55;1.52;;;6.40;99.90;;;;;;5039558;28;20471;-83
2022/03/27 05:23:18;;;;;;;3.28;1.60;;;6.50;99.90;;;;;;5024336;28;20415;-83
2022/03/27 05:25:45;;;;;;;4.97;3.00;;;6.40;99.90;;;;;;5023368;28;20041;-83
2022/03/27 05:28:14;;;;;;;3.50;2.00;;;6.40;99.90;;;;;;5023579;28;20555;-84
2022/03/27 05:30:40;;;;;;;18.80;3.53;;;6.40;99.90;;;;;;5024405;28;20483;-82
2022/03/27 05:33:06;;;;;;;12.48;2.15;;;6.40;99.90;;;;;;5022853;28;20515;-83
2022/03/27 05:35:32;;;;;;;15.02;2.45;;;6.40;99.90;;;;;;5039261;28;20081;-83
2022/03/27 05:38:01;;;;;;;4.10;2.50;;;6.40;99.90;;;;;;5023873;28;20541;-84
2022/03/27 05:40:27;;;;;;;7.43;2.35;;;6.50;99.90;;;;;;5022514;28;20473;-84
2022/03/27 05:42:53;;;;;;;29.02;2.63;;;6.50;99.90;;;;;;5024158;28;20124;-84
2022/03/27 05:45:19;;;;;;;2.15;1.95;;;6.50;99.90;;;;;;5031847;28;20495;-83
2022/03/27 05:47:45;;;;;;;4.75;1.88;;;6.50;99.90;;;;;;5043795;28;20045;-83
2022/03/27 05:50:14;;;;;;;4.07;2.65;;;6.50;99.90;;;;;;5043457;28;20044;-84
2022/03/27 05:52:43;;;;;;;3.33;2.15;;;6.50;99.90;;;;;;5043326;28;20554;-83
2022/03/27 05:55:09;;;;;;;3.67;1.60;;;6.50;99.90;;;;;;5042824;28;20045;-84
2022/03/27 05:57:34;;;;;;;1.52;1.48;;;6.50;99.90;;;;;;5043949;28;20124;-83
2022/03/27 06:00:00;;;;;;;2.88;2.05;;;6.40;99.90;;;;;;5043580;28;20163;-84
2022/03/27 06:02:25;;;;;;;7.28;2.15;;;6.40;99.90;;;;;;5042874;28;20056;-83
2022/03/27 06:04:51;;;;;;;5.03;3.03;;;6.40;99.90;;;;;;5023928;28;20052;-83
2022/03/27 06:07:17;;;;;;;3.63;2.25;;;6.50;99.90;;;;;;5022983;28;20048;-83
2022/03/27 06:09:42;;;;;;;8.20;2.28;;;6.40;99.90;;;;;;5037790;28;20392;-83
2022/03/27 06:12:10;;;;;;;3.20;2.92;;;6.40;99.90;;;;;;5023982;28;20060;-83
2022/03/27 06:14:35;;;;;;;12.88;2.55;;;6.40;99.90;;;;;;5022014;28;20599;-83
2022/03/27 06:17:01;;;;;;;1.52;1.42;;;6.40;99.90;;;;;;5023410;28;20128;-83
2022/03/27 06:19:30;;;;;;;6.13;2.83;;;6.50;99.90;;;;;;5021521;28;20107;-83
2022/03/27 06:21:56;;;;;;;3.28;2.13;;;6.50;99.90;;;;;;5023129;28;20046;-83
2022/03/27 06:24:22;;;;;;;7.57;2.25;;;6.50;99.90;;;;;;5022039;28;20045;-83
2022/03/27 06:26:47;;;;;;;18.23;3.92;;;6.50;99.90;;;;;;5022841;28;20047;-83
2022/03/27 06:29:14;;;;;;;3.03;2.70;;;6.50;99.90;;;;;;5021912;28;20042;-84
2022/03/27 06:31:40;;;;;;;5.50;3.67;;;6.60;99.90;;;;;;5022007;28;20091;-83
2022/03/27 06:34:06;;;;;;;1.77;1.67;;;6.60;99.90;;;;;;5023592;28;20046;-83
2022/03/27 06:36:34;;;;;;;16.70;3.90;;;6.60;99.90;;;;;;5022306;28;20140;-83
2022/03/27 06:38:59;;;;;;;19.30;3.05;;;6.60;99.90;;;;;;5021939;28;20454;-83
2022/03/27 06:41:25;;;;;;;18.88;4.50;;;6.70;99.90;;;;;;5022782;28;20128;-83
2022/03/27 06:43:51;;;;;;;5.70;4.07;;;6.70;99.90;;;;;;5022809;28;20041;-83
2022/03/27 06:46:17;;;;;;;8.02;3.60;;;6.70;99.90;;;;;;5038932;28;20079;-83
2022/03/27 06:48:46;;;;;;;9.38;3.00;;;6.70;99.90;;;;;;5042173;28;20041;-83
2022/03/27 06:51:11;;;;;;;7.95;3.00;;;6.70;99.90;;;;;;5041363;28;20447;-83
2022/03/27 06:53:37;;;;;;;4.70;2.88;;;6.80;99.90;;;;;;5042487;28;20124;-83
2022/03/27 06:56:03;;;;;;;10.60;4.40;;;6.80;99.90;;;;;;5040608;28;20049;-83
2022/03/27 06:58:29;;;;;;;3.88;3.17;;;6.80;99.90;;;;;;5042002;28;20131;-83
2022/03/27 07:03:39;;;;;;;2.65;2.15;;;6.90;99.90;;;;;;5020362;28;20087;-83
2022/03/27 07:06:04;;;;;;;7.28;3.55;;;6.90;99.90;;;;;;5021978;28;20521;-83
2022/03/27 07:08:30;;;;;;;4.65;2.13;;;7.00;99.90;;;;;;5022131;28;20046;-83
2022/03/27 07:10:56;;;;;;;11.40;5.40;;;7.00;99.90;;;;;;5021062;28;20033;-83
2022/03/27 07:13:21;;;;;;;4.32;2.60;;;7.00;99.90;;;;;;5021052;28;20105;-83
2022/03/27 07:15:49;;;;;;;3.90;3.40;;;7.10;99.90;;;;;;5020950;28;22053;-83
2022/03/27 07:18:18;;;;;;;9.93;3.53;;;7.10;99.90;;;;;;5020388;28;20041;-82
2022/03/27 07:20:46;;;;;;;5.60;3.22;;;7.10;99.90;;;;;;5022376;28;20503;-83
2022/03/27 07:23:13;;;;;;;4.32;3.58;;;7.10;99.90;;;;;;5019760;28;20077;-83
2022/03/27 07:25:42;;;;;;;14.40;4.15;;;7.10;99.90;;;;;;5021324;28;20041;-82
2022/03/27 07:28:09;;;;;;;17.85;3.15;;;7.10;99.90;;;;;;5026067;28;20041;-83
2022/03/27 07:30:35;;;;;;;3.95;2.47;;;7.20;99.90;;;;;;5033494;28;20090;-83
2022/03/27 07:33:02;;;;;;;4.25;2.25;;;7.20;99.90;;;;;;5034875;28;20499;-83
2022/03/27 07:35:30;;;;;;;16.48;1.92;;;7.20;99.90;;;;;;5036147;28;20124;-83
2022/03/27 07:37:56;;;;;;;6.38;3.22;;;7.30;99.90;;;;;;5039196;28;20060;-82
2022/03/27 07:40:22;;;;;;;10.52;3.20;;;7.40;99.90;;;;;;5019560;28;20041;-83
2022/03/27 07:42:50;;;;;;;3.13;2.80;;;7.40;99.90;;;;;;5024613;28;20051;-83
2022/03/27 07:45:21;;;;;;;11.25;2.85;;;7.50;99.90;;;;;;5033205;28;20091;-83
2022/03/27 07:47:49;;;;;;;6.53;2.65;;;7.50;99.90;;;;;;5045933;28;20510;-83
2022/03/27 07:50:15;;;;;;;7.90;2.75;;;7.60;99.90;;;;;;5031188;28;20033;-83
2022/03/27 07:52:41;;;;;;;4.07;2.30;;;7.60;99.90;;;;;;5026785;28;20104;-83
2022/03/27 07:55:09;;;;;;;5.93;3.55;;;7.60;99.90;;;;;;5047740;28;20617;-83
2022/03/27 07:57:35;;;;;;;12.45;4.40;;;7.60;99.90;;;;;;5030674;28;20033;-82
2022/03/27 08:00:02;;;;;;;5.72;3.42;;;7.60;99.90;;;;;;5026968;28;20042;-83
2022/03/27 08:02:27;;;;;;;4.07;2.80;;;7.70;99.90;;;;;;5041437;28;20111;-83
2022/03/27 08:04:53;;;;;;;36.03;4.55;;;7.70;99.90;;;;;;5036787;28;20128;-83
2022/03/27 08:07:18;;;;;;;8.90;2.50;;;7.70;99.90;;;;;;5031968;28;20179;-84
2022/03/27 08:09:44;;;;;;;21.52;4.30;;;7.70;99.90;;;;;;5026371;28;20114;-85
2022/03/27 08:12:11;;;;;;;7.20;3.42;;;7.70;99.90;;;;;;5013218;28;20041;-89
2022/03/27 08:14:37;;;;;;;6.53;2.35;;;7.80;99.90;;;;;;5032106;28;20038;-92
2022/03/27 08:17:04;;;;;;;5.10;2.53;;;7.80;99.90;;;;;;5032796;28;20033;-94
2022/03/27 08:19:37;;;;;;;5.88;2.67;;;7.90;99.90;;;;;;5040913;28;20171;-96
2022/03/27 08:22:03;;;;;;;5.90;4.00;;;7.90;99.90;;;;;;5024895;28;20048;-92
2022/03/27 08:24:28;;;;;;;3.15;1.73;;;7.90;99.90;;;;;;5026011;28;20038;-96
2022/03/27 08:26:59;;;;;;;9.10;2.58;;;8.00;99.90;;;;;;5030183;28;20092;-96
2022/03/27 08:29:26;;;;;;;4.43;2.85;;;8.10;99.90;;;;;;5027606;28;20492;-95
2022/03/27 08:31:53;;;;;;;8.95;4.20;;;8.10;99.90;;;;;;5035067;28;20041;-93
2022/03/27 08:34:20;;;;;;;12.93;4.43;;;8.10;99.90;;;;;;5042021;28;20442;-96
2022/03/27 08:36:47;;;;;;;41.63;3.72;;;8.10;99.90;;;;;;5066941;28;20087;-96
2022/03/27 08:39:15;;;;;;;16.20;5.07;;;8.20;99.90;;;;;;5054800;28;20045;-96
2022/03/27 08:41:47;;;;;;;14.57;3.38;;;8.20;99.90;;;;;;5049064;28;20037;-95
2022/03/27 08:44:15;;;;;;;5.25;2.50;;;8.20;99.90;;;;;;5037891;28;20045;-95
2022/03/27 08:46:42;;;;;;;7.60;3.15;;;8.20;99.90;;;;;;5034946;28;20088;-96
2022/03/27 08:49:30;;;;;;;8.77;3.08;;;8.20;99.90;;;;;;5030986;28;20628;-92
2022/03/27 08:52:18;;;;;;;17.95;3.75;;;8.20;99.90;;;;;;5032604;28;20432;-85
2022/03/27 08:54:52;;;;;;;16.58;4.13;;;8.30;99.90;;;;;;5007921;28;20067;-88
2022/03/27 08:57:37;;;;;;;4.22;2.47;;;8.30;99.90;;;;;;5034935;28;20099;-88
2022/03/27 09:00:10;;;;;;;21.60;2.40;;;8.40;99.90;;;;;;5023038;28;20038;-85
2022/03/27 09:02:36;;;;;;;12.57;4.75;;;8.30;99.90;;;;;;5025296;28;20104;-87
2022/03/27 09:05:03;;;;;;;15.80;3.67;;;8.40;99.90;;;;;;5029018;28;20045;-82
2022/03/27 09:07:30;;;;;;;9.10;3.08;;;8.40;99.90;;;;;;5008946;28;20957;-81
2022/03/27 09:09:58;;;;;;;2.95;2.75;;;8.40;99.90;;;;;;5027065;28;20047;-80
2022/03/27 09:12:24;;;;;;;27.23;3.28;;;8.50;99.90;;;;;;5032227;28;20045;-80
2022/03/27 09:14:50;;;;;;;10.85;3.88;;;8.50;99.90;;;;;;5029617;28;20038;-83
2022/03/27 09:17:16;;;;;;;13.45;3.55;;;8.50;99.90;;;;;;5041203;28;20108;-76
2022/03/27 09:19:48;;;;;;;5.05;2.78;;;8.50;99.90;;;;;;5022408;28;20045;-77
2022/03/27 09:22:19;;;;;;;6.70;2.78;;;8.60;99.90;;;;;;5033209;28;20060;-77
2022/03/27 09:24:57;;;;;;;6.15;2.70;;;8.60;99.90;;;;;;5026486;28;20399;-77
2022/03/27 09:27:34;;;;;;;4.93;2.08;;;8.60;99.90;;;;;;5029631;28;20165;-78
2022/03/27 09:30:06;;;;;;;8.38;2.63;;;8.70;99.90;;;;;;5023850;28;20045;-77
2022/03/27 09:32:40;;;;;;;6.85;3.45;;;8.70;99.90;;;;;;5004678;28;20052;-76
2022/03/27 09:35:17;;;;;;;5.70;3.10;;;8.70;99.90;;;;;;5021979;28;20054;-77
2022/03/27 09:37:47;;;;;;;3.83;2.67;;;8.80;99.90;;;;;;5024055;28;20063;-79
2022/03/27 09:40:15;;;;;;;8.68;2.55;;;8.80;99.90;;;;;;5030322;28;20041;-79
2022/03/27 09:42:41;;;;;;;11.18;3.17;;;8.80;99.90;;;;;;5025460;28;20045;-75
2022/03/27 09:45:28;;;;;;;13.07;3.05;;;8.80;99.90;;;;;;5028137;28;20038;-76
2022/03/27 09:48:06;;;;;;;10.93;3.28;;;8.90;99.90;;;;;;5022699;28;20811;-77
2022/03/27 09:50:37;;;;;;;4.13;3.83;;;8.90;99.90;;;;;;5017597;28;20045;-84
2022/03/27 09:53:28;;;;;;;14.55;3.42;;;9.00;99.90;;;;;;5016168;28;20045;-86
2022/03/27 09:55:56;;;;;;;6.65;2.03;;;9.00;99.90;;;;;;5022599;28;20656;-81
2022/03/27 09:58:40;;;;;;;12.27;2.92;;;9.00;99.90;;;;;;5019544;28;20034;-84
2022/03/27 10:01:14;;;;;;;13.40;2.67;;;9.00;99.90;;;;;;5016009;28;20128;-87
2022/03/27 10:04:04;;;;;;;4.72;2.97;;;9.00;99.90;;;;;;5024720;28;20102;-81
2022/03/27 10:06:40;;;;;;;4.10;2.13;;;9.10;99.90;;;;;;5011896;28;20045;-85
2022/03/27 10:09:11;;;;;;;6.53;3.03;;;9.10;99.90;;;;;;5021526;28;20088;-83
2022/03/27 10:11:38;;;;;;;4.15;2.28;;;9.10;99.90;;;;;;5031086;28;20572;-82
2022/03/27 10:14:06;;;;;;;3.60;1.73;;;9.20;99.90;;;;;;5030023;28;20060;-82
2022/03/27 10:16:35;;;;;;;2.53;1.27;;;9.20;99.90;;;;;;5031298;28;20041;-82
2022/03/27 10:19:12;;;;;;;15.55;1.98;;;9.20;99.90;;;;;;5029032;28;20099;-82
2022/03/27 10:21:42;;;;;;;14.45;2.13;;;9.20;99.90;;;;;;5017449;28;20527;-83
2022/03/27 10:24:16;;;;;;;4.50;2.28;;;9.30;99.90;;;;;;5001463;28;20109;-83
2022/03/27 10:26:44;;;;;;;6.45;1.75;;;9.30;99.90;;;;;;5019682;28;20081;-83
2022/03/27 10:29:12;;;;;;;5.60;2.53;;;9.40;99.90;;;;;;5021741;28;20120;-83
2022/03/27 10:31:38;;;;;;;2.67;2.08;;;9.40;99.90;;;;;;5022090;28;20128;-84
2022/03/27 10:34:06;;;;;;;1.60;1.50;;;9.40;99.90;;;;;;5022484;28;20120;-83
2022/03/27 10:36:46;;;;;;;3.55;3.05;;;9.50;99.90;;;;;;5020654;28;20038;-84
2022/03/27 10:39:24;;;;;;;7.82;1.17;;;9.50;99.90;;;;;;5021534;28;20045;-84
2022/03/27 10:42:11;;;;;;;4.60;2.10;;;9.60;99.90;;;;;;5022319;28;20052;-84
2022/03/27 10:45:02;;;;;;;1.70;1.13;;;9.60;99.90;;;;;;5023474;28;20083;-84
2022/03/27 10:47:31;;;;;;;6.30;1.63;;;9.60;99.90;;;;;;5020159;28;20075;-84
2022/03/27 10:50:04;;;;;;;6.50;1.85;;;9.70;99.90;;;;;;5027310;28;20037;-83
2022/03/27 10:52:42;;;;;;;12.68;1.80;;;9.70;99.90;;;;;;5039243;28;20052;-85
2022/03/27 10:55:11;;;;;;;2.85;2.65;;;9.70;99.90;;;;;;5026657;28;20047;-84
2022/03/27 10:57:51;;;;;;;15.38;2.22;;;9.80;99.90;;;;;;5012378;28;20140;-84
2022/03/27 11:00:40;;;;;;;1.38;1.27;;;9.80;99.90;;;;;;5025349;28;20045;-85
2022/03/27 11:03:06;;;;;;;6.70;0.88;;;9.80;99.90;;;;;;5027808;28;20050;-89
2022/03/27 11:05:35;;;;;;;8.13;1.73;;;9.90;99.90;;;;;;5029403;28;20037;-86
2022/03/27 11:08:16;;;;;;;4.28;1.05;;;9.80;99.90;;;;;;5028852;28;20442;-83
2022/03/27 11:10:51;;;;;;;7.38;1.85;;;9.90;99.90;;;;;;5028841;28;20068;-83
2022/03/27 11:13:26;;;;;;;5.45;1.75;;;9.90;99.90;;;;;;5028529;28;20210;-86
2022/03/27 11:16:08;;;;;;;2.13;1.48;;;10.00;99.90;;;;;;5027160;28;20043;-87
2022/03/27 11:18:44;;;;;;;1.00;1.00;;;10.00;99.90;;;;;;5028871;28;20395;-86
2022/03/27 11:21:31;;;;;;;5.50;0.90;;;10.00;99.90;;;;;;5020183;28;20033;-87
2022/03/27 11:24:02;;;;;;;1.85;1.70;;;10.10;99.90;;;;;;5030716;28;20047;-85
2022/03/27 11:26:29;;;;;;;8.70;1.30;;;10.20;99.90;;;;;;5032011;28;20060;-85
2022/03/27 11:29:05;;;;;;;4.22;1.90;;;10.30;99.90;;;;;;5027172;28;20048;-83
2022/03/27 11:31:33;;;;;;;0.95;0.88;;;10.30;99.90;;;;;;5020374;28;20102;-85
2022/03/27 11:34:07;;;;;;;2.35;1.05;;;10.20;99.90;;;;;;5021304;28;20688;-83
2022/03/27 11:36:35;;;;;;;3.17;1.98;;;10.20;99.90;;;;;;5018767;28;20677;-81
2022/03/27 11:39:12;;;;;;;1.77;1.02;;;10.20;99.90;;;;;;5020138;28;20106;-85
2022/03/27 11:41:46;;;;;;;1.15;1.10;;;10.20;99.90;;;;;;5017986;28;20068;-79
2022/03/27 11:44:19;;;;;;;3.40;1.23;;;10.30;99.90;;;;;;5016030;28;20049;-78
2022/03/27 11:46:49;;;;;;;1.55;1.15;;;10.30;99.90;;;;;;5019299;28;20077;-78
2022/03/27 11:49:16;;;;;;;2.90;1.50;;;10.30;99.90;;;;;;5015466;28;20042;-77
2022/03/27 11:51:42;;;;;;;9.50;1.17;;;10.40;99.90;;;;;;5020754;28;20050;-78
2022/03/27 11:54:22;;;;;;;1.48;0.80;;;10.40;99.90;;;;;;5019291;28;20041;-78
2022/03/27 11:56:59;;;;;;;1.95;1.85;;;10.40;99.90;;;;;;5020716;28;20116;-77
2022/03/27 11:59:26;;;;;;;0.73;0.73;;;10.40;99.90;;;;;;5019510;28;20087;-77
2022/03/27 12:02:00;;;;;;;2.60;1.52;;;10.40;99.90;;;;;;5021668;28;20407;-77
2022/03/27 12:04:27;;;;;;;6.40;1.90;;;10.40;99.90;;;;;;5021099;28;20062;-76
2022/03/27 12:06:57;;;;;;;0.77;0.68;;;10.40;99.90;;;;;;5021269;28;20127;-77
2022/03/27 12:09:33;;;;;;;1.30;1.25;;;10.50;99.90;;;;;;5020382;28;20059;-76
2022/03/27 12:12:12;;;;;;;3.17;1.23;;;10.50;99.90;;;;;;5012302;28;20057;-79
2022/03/27 12:14:54;;;;;;;16.48;1.35;;;10.50;99.90;;;;;;5017099;28;20081;-78
2022/03/27 12:17:22;;;;;;;0.95;0.80;;;10.50;99.90;;;;;;5000505;28;20073;-79
2022/03/27 12:20:01;;;;;;;1.80;1.20;;;10.50;99.90;;;;;;5001619;28;20073;-76
2022/03/27 12:22:39;;;;;;;2.38;1.15;;;10.60;99.90;;;;;;5015487;28;20048;-76
2022/03/27 12:25:07;;;;;;;4.50;1.55;;;10.60;99.90;;;;;;5021218;28;20415;-77
2022/03/27 12:30:29;;;;;;;6.57;1.58;;;10.60;99.90;;;;;;5024196;28;20092;-74
2022/03/27 12:32:55;;;;;;;1.75;1.08;;;10.60;99.90;;;;;;5021657;28;20053;-74
2022/03/27 12:35:22;;;;;;;9.02;1.70;;;10.60;99.90;;;;;;5021761;28;20423;-75
2022/03/27 12:37:48;;;;;;;4.28;0.98;;;10.70;99.90;;;;;;5030001;28;20068;-75
2022/03/27 12:40:14;;;;;;;1.40;1.33;;;10.60;99.90;;;;;;5027729;28;20045;-77
2022/03/27 12:42:43;;;;;;;0.65;0.65;;;10.70;99.90;;;;;;5029118;28;20102;-75
2022/03/27 12:45:17;;;;;;;6.47;1.52;;;10.80;99.90;;;;;;5029080;28;20069;-74
2022/03/27 12:47:52;;;;;;;4.25;0.55;;;10.90;99.90;;;;;;5023805;28;20491;-74
2022/03/27 12:50:40;;;;;;;0.70;0.70;;;10.90;99.90;;;;;;5024720;28;20451;-75
2022/03/27 12:53:12;;;;;;;3.33;1.20;;;11.00;99.90;;;;;;5023848;28;20057;-75
2022/03/27 12:55:50;;;;;;;2.15;0.88;;;11.00;99.90;;;;;;5024798;28;20565;-75
2022/03/27 12:58:17;;;;;;;1.58;1.40;;;10.90;99.90;;;;;;5023988;28;20041;-75
2022/03/27 13:00:45;;;;;;;3.30;0.95;;;10.90;99.90;;;;;;5024064;28;20093;-75
2022/03/27 13:03:11;;;;;;;11.38;2.25;;;11.00;99.90;;;;;;5023932;28;20057;-76
2022/03/27 13:05:38;;;;;;;2.03;1.38;;;11.00;99.90;;;;;;5022820;28;20551;-77
2022/03/27 13:08:03;;;;;;;3.20;1.08;;;11.10;99.90;;;;;;5022371;28;20053;-77
2022/03/27 13:10:29;;;;;;;1.27;1.10;;;11.10;99.90;;;;;;5021020;28;21865;-77